sensor_id;sensor_type;location;lat;lon;timestamp;P1;durP1;ratioP1;P2;durP2;ratioP2
56333;SDS011;42240;53.626;55.886;2023-04-15T00:00:46;0.40;;;0.40;;
56333;SDS011;42240;53.626;55.886;2023-04-15T00:02:20;0.40;;;0.40;;
56333;SDS011;42240;53.626;55.886;2023-04-15T00:03:53;0.40;;;0.40;;
56333;SDS011;42240;53.626;55.886;2023-04-15T00:05:30;0.30;;;0.30;;
56333;SDS011;42240;53.626;55.886;2023-04-15T00:07:04;0.40;;;0.40;;
56333;SDS011;42240;53.626;55.886;2023-04-15T00:08:37;0.40;;;0.40;;
56333;SDS011;42240;53.626;55.886;2023-04-15T00:10:10;0.40;;;0.40;;
56333;SDS011;42240;53.626;55.886;2023-04-15T00:11:44;0.40;;;0.40;;
56333;SDS011;42240;53.626;55.886;2023-04-15T00:13:18;0.40;;;0.40;;
56333;SDS011;42240;53.626;55.886;2023-04-15T00:14:51;0.40;;;0.40;;
56333;SDS011;42240;53.626;55.886;2023-04-15T00:16:26;0.40;;;0.40;;
56333;SDS011;42240;53.626;55.886;2023-04-15T00:17:59;0.40;;;0.40;;
56333;SDS011;42240;53.626;55.886;2023-04-15T00:19:33;0.40;;;0.40;;
56333;SDS011;42240;53.626;55.886;2023-04-15T00:21:06;0.40;;;0.40;;
56333;SDS011;42240;53.626;55.886;2023-04-15T00:22:40;0.40;;;0.40;;
56333;SDS011;42240;53.626;55.886;2023-04-15T00:24:14;0.40;;;0.40;;
56333;SDS011;42240;53.626;55.886;2023-04-15T00:25:47;0.40;;;0.40;;
56333;SDS011;42240;53.626;55.886;2023-04-15T00:27:20;0.40;;;0.40;;
56333;SDS011;42240;53.626;55.886;2023-04-15T00:28:53;0.40;;;0.40;;
56333;SDS011;42240;53.626;55.886;2023-04-15T00:30:26;0.40;;;0.40;;
56333;SDS011;42240;53.626;55.886;2023-04-15T00:32:00;0.40;;;0.40;;
56333;SDS011;42240;53.626;55.886;2023-04-15T00:33:34;0.40;;;0.40;;
56333;SDS011;42240;53.626;55.886;2023-04-15T00:35:08;0.40;;;0.40;;
56333;SDS011;42240;53.626;55.886;2023-04-15T00:36:42;0.40;;;0.40;;
56333;SDS011;42240;53.626;55.886;2023-04-15T00:38:16;0.40;;;0.40;;
56333;SDS011;42240;53.626;55.886;2023-04-15T00:39:49;0.32;;;0.32;;
56333;SDS011;42240;53.626;55.886;2023-04-15T00:41:23;0.40;;;0.40;;
56333;SDS011;42240;53.626;55.886;2023-04-15T00:42:57;0.40;;;0.40;;
56333;SDS011;42240;53.626;55.886;2023-04-15T00:44:30;0.40;;;0.40;;
56333;SDS011;42240;53.626;55.886;2023-04-15T00:46:04;0.40;;;0.40;;
56333;SDS011;42240;53.626;55.886;2023-04-15T00:47:40;0.40;;;0.40;;
56333;SDS011;42240;53.626;55.886;2023-04-15T00:49:14;0.40;;;0.40;;
56333;SDS011;42240;53.626;55.886;2023-04-15T00:50:49;0.40;;;0.40;;
56333;SDS011;42240;53.626;55.886;2023-04-15T00:52:22;0.40;;;0.40;;
56333;SDS011;42240;53.626;55.886;2023-04-15T00:53:55;0.40;;;0.40;;
56333;SDS011;42240;53.626;55.886;2023-04-15T00:55:29;0.40;;;0.40;;
56333;SDS011;42240;53.626;55.886;2023-04-15T00:57:04;0.47;;;0.47;;
56333;SDS011;42240;53.626;55.886;2023-04-15T00:58:38;0.47;;;0.47;;
56333;SDS011;42240;53.626;55.886;2023-04-15T01:00:12;0.45;;;0.45;;
56333;SDS011;42240;53.626;55.886;2023-04-15T01:01:46;0.40;;;0.40;;
56333;SDS011;42240;53.626;55.886;2023-04-15T01:03:20;0.40;;;0.40;;
56333;SDS011;42240;53.626;55.886;2023-04-15T01:04:53;0.40;;;0.40;;
56333;SDS011;42240;53.626;55.886;2023-04-15T01:06:29;0.40;;;0.40;;
56333;SDS011;42240;53.626;55.886;2023-04-15T01:08:04;0.40;;;0.40;;
56333;SDS011;42240;53.626;55.886;2023-04-15T01:09:37;0.40;;;0.40;;
56333;SDS011;42240;53.626;55.886;2023-04-15T01:11:11;0.40;;;0.40;;
56333;SDS011;42240;53.626;55.886;2023-04-15T01:12:45;0.40;;;0.40;;
56333;SDS011;42240;53.626;55.886;2023-04-15T01:14:19;0.40;;;0.40;;
56333;SDS011;42240;53.626;55.886;2023-04-15T01:15:53;0.40;;;0.40;;
56333;SDS011;42240;53.626;55.886;2023-04-15T01:17:29;0.40;;;0.40;;
56333;SDS011;42240;53.626;55.886;2023-04-15T01:19:03;0.40;;;0.40;;
56333;SDS011;42240;53.626;55.886;2023-04-15T01:20:36;0.43;;;0.43;;
56333;SDS011;42240;53.626;55.886;2023-04-15T01:22:10;0.40;;;0.40;;
56333;SDS011;42240;53.626;55.886;2023-04-15T01:23:45;0.40;;;0.40;;
56333;SDS011;42240;53.626;55.886;2023-04-15T01:25:53;0.40;;;0.40;;
56333;SDS011;42240;53.626;55.886;2023-04-15T01:27:20;0.40;;;0.40;;
56333;SDS011;42240;53.626;55.886;2023-04-15T01:28:53;0.40;;;0.40;;
56333;SDS011;42240;53.626;55.886;2023-04-15T01:30:28;0.40;;;0.40;;
56333;SDS011;42240;53.626;55.886;2023-04-15T01:32:05;0.40;;;0.40;;
56333;SDS011;42240;53.626;55.886;2023-04-15T01:33:57;0.40;;;0.40;;
56333;SDS011;42240;53.626;55.886;2023-04-15T01:35:49;0.40;;;0.40;;
56333;SDS011;42240;53.626;55.886;2023-04-15T01:37:22;0.40;;;0.40;;
56333;SDS011;42240;53.626;55.886;2023-04-15T01:38:56;0.40;;;0.40;;
56333;SDS011;42240;53.626;55.886;2023-04-15T01:40:30;0.40;;;0.40;;
56333;SDS011;42240;53.626;55.886;2023-04-15T01:42:04;0.38;;;0.38;;
56333;SDS011;42240;53.626;55.886;2023-04-15T01:43:39;0.40;;;0.40;;
56333;SDS011;42240;53.626;55.886;2023-04-15T01:45:15;0.40;;;0.40;;
56333;SDS011;42240;53.626;55.886;2023-04-15T01:46:50;0.40;;;0.40;;
56333;SDS011;42240;53.626;55.886;2023-04-15T01:48:25;0.40;;;0.40;;
56333;SDS011;42240;53.626;55.886;2023-04-15T01:50:00;0.40;;;0.40;;
56333;SDS011;42240;53.626;55.886;2023-04-15T01:51:34;0.50;;;0.50;;
56333;SDS011;42240;53.626;55.886;2023-04-15T01:53:09;0.50;;;0.50;;
56333;SDS011;42240;53.626;55.886;2023-04-15T01:54:43;0.50;;;0.50;;
56333;SDS011;42240;53.626;55.886;2023-04-15T01:56:18;0.40;;;0.40;;
56333;SDS011;42240;53.626;55.886;2023-04-15T01:57:53;0.40;;;0.40;;
56333;SDS011;42240;53.626;55.886;2023-04-15T01:59:29;0.40;;;0.40;;
56333;SDS011;42240;53.626;55.886;2023-04-15T02:01:04;0.40;;;0.40;;
56333;SDS011;42240;53.626;55.886;2023-04-15T02:02:39;0.40;;;0.40;;
56333;SDS011;42240;53.626;55.886;2023-04-15T02:04:14;0.40;;;0.40;;
56333;SDS011;42240;53.626;55.886;2023-04-15T02:05:52;0.40;;;0.40;;
56333;SDS011;42240;53.626;55.886;2023-04-15T02:07:26;0.40;;;0.40;;
56333;SDS011;42240;53.626;55.886;2023-04-15T02:09:01;0.40;;;0.40;;
56333;SDS011;42240;53.626;55.886;2023-04-15T02:10:37;0.40;;;0.40;;
56333;SDS011;42240;53.626;55.886;2023-04-15T02:12:12;0.30;;;0.30;;
56333;SDS011;42240;53.626;55.886;2023-04-15T02:13:46;0.40;;;0.40;;
56333;SDS011;42240;53.626;55.886;2023-04-15T02:15:20;0.40;;;0.40;;
56333;SDS011;42240;53.626;55.886;2023-04-15T02:16:56;0.40;;;0.40;;
56333;SDS011;42240;53.626;55.886;2023-04-15T02:18:30;0.30;;;0.30;;
56333;SDS011;42240;53.626;55.886;2023-04-15T02:20:05;0.30;;;0.30;;
56333;SDS011;42240;53.626;55.886;2023-04-15T02:21:41;0.30;;;0.30;;
56333;SDS011;42240;53.626;55.886;2023-04-15T02:23:15;0.30;;;0.30;;
56333;SDS011;42240;53.626;55.886;2023-04-15T02:24:50;0.30;;;0.30;;
56333;SDS011;42240;53.626;55.886;2023-04-15T02:26:24;0.30;;;0.30;;
56333;SDS011;42240;53.626;55.886;2023-04-15T02:28:00;0.30;;;0.30;;
56333;SDS011;42240;53.626;55.886;2023-04-15T02:29:35;0.30;;;0.30;;
56333;SDS011;42240;53.626;55.886;2023-04-15T02:31:09;0.30;;;0.30;;
56333;SDS011;42240;53.626;55.886;2023-04-15T02:32:43;0.30;;;0.30;;
56333;SDS011;42240;53.626;55.886;2023-04-15T02:34:17;0.30;;;0.30;;
56333;SDS011;42240;53.626;55.886;2023-04-15T02:35:52;0.30;;;0.30;;
56333;SDS011;42240;53.626;55.886;2023-04-15T02:37:26;0.30;;;0.30;;
56333;SDS011;42240;53.626;55.886;2023-04-15T02:39:01;0.30;;;0.30;;
56333;SDS011;42240;53.626;55.886;2023-04-15T02:40:36;0.30;;;0.30;;
56333;SDS011;42240;53.626;55.886;2023-04-15T02:42:12;0.20;;;0.20;;
56333;SDS011;42240;53.626;55.886;2023-04-15T02:43:47;0.30;;;0.30;;
56333;SDS011;42240;53.626;55.886;2023-04-15T02:45:22;0.30;;;0.30;;
56333;SDS011;42240;53.626;55.886;2023-04-15T02:46:58;0.20;;;0.20;;
56333;SDS011;42240;53.626;55.886;2023-04-15T02:48:33;0.30;;;0.30;;
56333;SDS011;42240;53.626;55.886;2023-04-15T02:50:09;0.30;;;0.30;;
56333;SDS011;42240;53.626;55.886;2023-04-15T02:51:47;0.20;;;0.20;;
56333;SDS011;42240;53.626;55.886;2023-04-15T02:53:23;0.30;;;0.30;;
56333;SDS011;42240;53.626;55.886;2023-04-15T02:54:58;0.20;;;0.20;;
56333;SDS011;42240;53.626;55.886;2023-04-15T02:56:35;0.30;;;0.30;;
56333;SDS011;42240;53.626;55.886;2023-04-15T02:58:09;0.20;;;0.20;;
56333;SDS011;42240;53.626;55.886;2023-04-15T02:59:43;0.28;;;0.28;;
56333;SDS011;42240;53.626;55.886;2023-04-15T03:01:19;0.25;;;0.25;;
56333;SDS011;42240;53.626;55.886;2023-04-15T03:02:57;0.20;;;0.20;;
56333;SDS011;42240;53.626;55.886;2023-04-15T03:04:36;0.20;;;0.20;;
56333;SDS011;42240;53.626;55.886;2023-04-15T03:06:10;0.20;;;0.20;;
56333;SDS011;42240;53.626;55.886;2023-04-15T03:07:45;0.30;;;0.30;;
56333;SDS011;42240;53.626;55.886;2023-04-15T03:09:19;0.30;;;0.30;;
56333;SDS011;42240;53.626;55.886;2023-04-15T03:10:53;0.30;;;0.30;;
56333;SDS011;42240;53.626;55.886;2023-04-15T03:12:28;0.20;;;0.20;;
56333;SDS011;42240;53.626;55.886;2023-04-15T03:14:03;0.20;;;0.20;;
56333;SDS011;42240;53.626;55.886;2023-04-15T03:15:40;0.20;;;0.20;;
56333;SDS011;42240;53.626;55.886;2023-04-15T03:17:15;0.20;;;0.20;;
56333;SDS011;42240;53.626;55.886;2023-04-15T03:18:50;0.20;;;0.20;;
56333;SDS011;42240;53.626;55.886;2023-04-15T03:20:26;0.20;;;0.20;;
56333;SDS011;42240;53.626;55.886;2023-04-15T03:22:01;0.22;;;0.22;;
56333;SDS011;42240;53.626;55.886;2023-04-15T03:23:35;0.20;;;0.20;;
56333;SDS011;42240;53.626;55.886;2023-04-15T03:25:09;0.20;;;0.20;;
56333;SDS011;42240;53.626;55.886;2023-04-15T03:26:44;0.20;;;0.20;;
56333;SDS011;42240;53.626;55.886;2023-04-15T03:28:21;0.20;;;0.20;;
56333;SDS011;42240;53.626;55.886;2023-04-15T03:29:56;0.20;;;0.20;;
56333;SDS011;42240;53.626;55.886;2023-04-15T03:31:32;0.20;;;0.20;;
56333;SDS011;42240;53.626;55.886;2023-04-15T03:33:06;0.20;;;0.20;;
56333;SDS011;42240;53.626;55.886;2023-04-15T03:34:42;0.20;;;0.20;;
56333;SDS011;42240;53.626;55.886;2023-04-15T03:36:16;0.20;;;0.20;;
56333;SDS011;42240;53.626;55.886;2023-04-15T03:37:51;0.20;;;0.20;;
56333;SDS011;42240;53.626;55.886;2023-04-15T03:39:25;0.20;;;0.20;;
56333;SDS011;42240;53.626;55.886;2023-04-15T03:40:59;0.20;;;0.20;;
56333;SDS011;42240;53.626;55.886;2023-04-15T03:42:34;0.20;;;0.20;;
56333;SDS011;42240;53.626;55.886;2023-04-15T03:44:08;0.20;;;0.20;;
56333;SDS011;42240;53.626;55.886;2023-04-15T03:45:42;0.20;;;0.20;;
56333;SDS011;42240;53.626;55.886;2023-04-15T03:47:17;0.20;;;0.20;;
56333;SDS011;42240;53.626;55.886;2023-04-15T03:48:51;0.20;;;0.20;;
56333;SDS011;42240;53.626;55.886;2023-04-15T03:50:25;0.20;;;0.20;;
56333;SDS011;42240;53.626;55.886;2023-04-15T03:52:00;0.20;;;0.20;;
56333;SDS011;42240;53.626;55.886;2023-04-15T03:53:34;0.20;;;0.20;;
56333;SDS011;42240;53.626;55.886;2023-04-15T03:55:09;0.20;;;0.20;;
56333;SDS011;42240;53.626;55.886;2023-04-15T03:56:43;0.20;;;0.20;;
56333;SDS011;42240;53.626;55.886;2023-04-15T03:58:18;0.20;;;0.20;;
56333;SDS011;42240;53.626;55.886;2023-04-15T03:59:52;0.20;;;0.20;;
56333;SDS011;42240;53.626;55.886;2023-04-15T04:01:26;0.20;;;0.20;;
56333;SDS011;42240;53.626;55.886;2023-04-15T04:03:01;0.20;;;0.20;;
56333;SDS011;42240;53.626;55.886;2023-04-15T04:04:35;0.20;;;0.20;;
56333;SDS011;42240;53.626;55.886;2023-04-15T04:06:09;0.20;;;0.20;;
56333;SDS011;42240;53.626;55.886;2023-04-15T04:07:45;0.20;;;0.20;;
56333;SDS011;42240;53.626;55.886;2023-04-15T04:09:19;0.10;;;0.10;;
56333;SDS011;42240;53.626;55.886;2023-04-15T04:10:54;0.20;;;0.20;;
56333;SDS011;42240;53.626;55.886;2023-04-15T04:12:28;0.20;;;0.20;;
56333;SDS011;42240;53.626;55.886;2023-04-15T04:14:03;0.20;;;0.20;;
56333;SDS011;42240;53.626;55.886;2023-04-15T04:15:37;0.20;;;0.20;;
56333;SDS011;42240;53.626;55.886;2023-04-15T04:17:11;0.20;;;0.20;;
56333;SDS011;42240;53.626;55.886;2023-04-15T04:18:46;0.20;;;0.20;;
56333;SDS011;42240;53.626;55.886;2023-04-15T04:20:20;0.20;;;0.20;;
56333;SDS011;42240;53.626;55.886;2023-04-15T04:21:55;0.20;;;0.20;;
56333;SDS011;42240;53.626;55.886;2023-04-15T04:23:29;0.20;;;0.20;;
56333;SDS011;42240;53.626;55.886;2023-04-15T04:25:04;0.20;;;0.20;;
56333;SDS011;42240;53.626;55.886;2023-04-15T04:26:39;0.20;;;0.20;;
56333;SDS011;42240;53.626;55.886;2023-04-15T04:28:13;0.10;;;0.10;;
56333;SDS011;42240;53.626;55.886;2023-04-15T04:29:48;0.20;;;0.20;;
56333;SDS011;42240;53.626;55.886;2023-04-15T04:31:22;0.20;;;0.20;;
56333;SDS011;42240;53.626;55.886;2023-04-15T04:32:56;0.20;;;0.20;;
56333;SDS011;42240;53.626;55.886;2023-04-15T04:34:31;0.20;;;0.20;;
56333;SDS011;42240;53.626;55.886;2023-04-15T04:36:05;0.20;;;0.20;;
56333;SDS011;42240;53.626;55.886;2023-04-15T04:37:40;0.20;;;0.20;;
56333;SDS011;42240;53.626;55.886;2023-04-15T04:39:14;0.20;;;0.20;;
56333;SDS011;42240;53.626;55.886;2023-04-15T04:40:48;0.20;;;0.20;;
56333;SDS011;42240;53.626;55.886;2023-04-15T04:42:22;0.20;;;0.20;;
56333;SDS011;42240;53.626;55.886;2023-04-15T04:43:57;0.20;;;0.20;;
56333;SDS011;42240;53.626;55.886;2023-04-15T04:45:31;0.20;;;0.20;;
56333;SDS011;42240;53.626;55.886;2023-04-15T04:47:05;0.20;;;0.20;;
56333;SDS011;42240;53.626;55.886;2023-04-15T04:48:40;0.20;;;0.20;;
56333;SDS011;42240;53.626;55.886;2023-04-15T04:50:14;0.20;;;0.20;;
56333;SDS011;42240;53.626;55.886;2023-04-15T04:51:49;0.17;;;0.17;;
56333;SDS011;42240;53.626;55.886;2023-04-15T04:53:24;0.20;;;0.20;;
56333;SDS011;42240;53.626;55.886;2023-04-15T04:54:59;0.10;;;0.10;;
56333;SDS011;42240;53.626;55.886;2023-04-15T04:56:33;0.20;;;0.20;;
56333;SDS011;42240;53.626;55.886;2023-04-15T04:58:08;0.20;;;0.20;;
56333;SDS011;42240;53.626;55.886;2023-04-15T04:59:42;0.20;;;0.20;;
56333;SDS011;42240;53.626;55.886;2023-04-15T05:01:16;0.10;;;0.10;;
56333;SDS011;42240;53.626;55.886;2023-04-15T05:02:50;0.20;;;0.20;;
56333;SDS011;42240;53.626;55.886;2023-04-15T05:04:25;0.20;;;0.20;;
56333;SDS011;42240;53.626;55.886;2023-04-15T05:05:59;0.20;;;0.20;;
56333;SDS011;42240;53.626;55.886;2023-04-15T05:07:35;0.20;;;0.20;;
56333;SDS011;42240;53.626;55.886;2023-04-15T05:09:10;0.20;;;0.20;;
56333;SDS011;42240;53.626;55.886;2023-04-15T05:10:45;0.20;;;0.20;;
56333;SDS011;42240;53.626;55.886;2023-04-15T05:12:19;0.20;;;0.20;;
56333;SDS011;42240;53.626;55.886;2023-04-15T05:13:53;0.20;;;0.20;;
56333;SDS011;42240;53.626;55.886;2023-04-15T05:15:28;0.20;;;0.20;;
56333;SDS011;42240;53.626;55.886;2023-04-15T05:17:02;0.20;;;0.20;;
56333;SDS011;42240;53.626;55.886;2023-04-15T05:18:36;0.13;;;0.13;;
56333;SDS011;42240;53.626;55.886;2023-04-15T05:20:10;0.20;;;0.20;;
56333;SDS011;42240;53.626;55.886;2023-04-15T05:21:45;0.20;;;0.20;;
56333;SDS011;42240;53.626;55.886;2023-04-15T05:23:19;0.20;;;0.20;;
56333;SDS011;42240;53.626;55.886;2023-04-15T05:24:53;0.20;;;0.20;;
56333;SDS011;42240;53.626;55.886;2023-04-15T05:26:28;0.20;;;0.20;;
56333;SDS011;42240;53.626;55.886;2023-04-15T05:28:02;0.20;;;0.20;;
56333;SDS011;42240;53.626;55.886;2023-04-15T05:29:36;0.20;;;0.20;;
56333;SDS011;42240;53.626;55.886;2023-04-15T05:31:11;0.20;;;0.20;;
56333;SDS011;42240;53.626;55.886;2023-04-15T05:32:45;0.20;;;0.20;;
56333;SDS011;42240;53.626;55.886;2023-04-15T05:34:19;0.20;;;0.20;;
56333;SDS011;42240;53.626;55.886;2023-04-15T05:35:53;0.20;;;0.20;;
56333;SDS011;42240;53.626;55.886;2023-04-15T05:37:28;0.20;;;0.20;;
56333;SDS011;42240;53.626;55.886;2023-04-15T05:39:02;0.20;;;0.20;;
56333;SDS011;42240;53.626;55.886;2023-04-15T05:40:36;0.20;;;0.20;;
56333;SDS011;42240;53.626;55.886;2023-04-15T05:42:11;0.20;;;0.20;;
56333;SDS011;42240;53.626;55.886;2023-04-15T05:43:45;0.20;;;0.20;;
56333;SDS011;42240;53.626;55.886;2023-04-15T05:45:19;0.10;;;0.10;;
56333;SDS011;42240;53.626;55.886;2023-04-15T05:46:53;0.20;;;0.20;;
56333;SDS011;42240;53.626;55.886;2023-04-15T05:48:28;0.13;;;0.13;;
56333;SDS011;42240;53.626;55.886;2023-04-15T05:50:02;0.20;;;0.20;;
56333;SDS011;42240;53.626;55.886;2023-04-15T05:51:37;0.20;;;0.20;;
56333;SDS011;42240;53.626;55.886;2023-04-15T05:53:11;0.20;;;0.20;;
56333;SDS011;42240;53.626;55.886;2023-04-15T05:54:46;0.20;;;0.20;;
56333;SDS011;42240;53.626;55.886;2023-04-15T05:56:20;0.20;;;0.20;;
56333;SDS011;42240;53.626;55.886;2023-04-15T05:57:54;0.20;;;0.20;;
56333;SDS011;42240;53.626;55.886;2023-04-15T05:59:29;0.20;;;0.20;;
56333;SDS011;42240;53.626;55.886;2023-04-15T06:01:04;0.20;;;0.20;;
56333;SDS011;42240;53.626;55.886;2023-04-15T06:02:38;0.10;;;0.10;;
56333;SDS011;42240;53.626;55.886;2023-04-15T06:04:13;0.20;;;0.20;;
56333;SDS011;42240;53.626;55.886;2023-04-15T06:05:48;0.20;;;0.20;;
56333;SDS011;42240;53.626;55.886;2023-04-15T06:07:22;0.20;;;0.20;;
56333;SDS011;42240;53.626;55.886;2023-04-15T06:08:56;0.13;;;0.13;;
56333;SDS011;42240;53.626;55.886;2023-04-15T06:10:31;0.20;;;0.20;;
56333;SDS011;42240;53.626;55.886;2023-04-15T06:12:09;0.10;;;0.10;;
56333;SDS011;42240;53.626;55.886;2023-04-15T06:13:44;0.10;;;0.10;;
56333;SDS011;42240;53.626;55.886;2023-04-15T06:15:19;0.20;;;0.20;;
56333;SDS011;42240;53.626;55.886;2023-04-15T06:16:53;0.20;;;0.20;;
56333;SDS011;42240;53.626;55.886;2023-04-15T06:18:27;0.20;;;0.20;;
56333;SDS011;42240;53.626;55.886;2023-04-15T06:20:02;0.20;;;0.20;;
56333;SDS011;42240;53.626;55.886;2023-04-15T06:21:36;0.20;;;0.20;;
56333;SDS011;42240;53.626;55.886;2023-04-15T06:23:11;0.20;;;0.20;;
56333;SDS011;42240;53.626;55.886;2023-04-15T06:24:46;0.20;;;0.20;;
56333;SDS011;42240;53.626;55.886;2023-04-15T06:26:20;0.20;;;0.20;;
56333;SDS011;42240;53.626;55.886;2023-04-15T06:27:55;0.20;;;0.20;;
56333;SDS011;42240;53.626;55.886;2023-04-15T06:29:29;0.20;;;0.20;;
56333;SDS011;42240;53.626;55.886;2023-04-15T06:31:04;0.20;;;0.20;;
56333;SDS011;42240;53.626;55.886;2023-04-15T06:32:38;0.20;;;0.20;;
56333;SDS011;42240;53.626;55.886;2023-04-15T06:34:13;0.20;;;0.20;;
56333;SDS011;42240;53.626;55.886;2023-04-15T06:35:47;0.20;;;0.20;;
56333;SDS011;42240;53.626;55.886;2023-04-15T06:37:22;0.20;;;0.20;;
56333;SDS011;42240;53.626;55.886;2023-04-15T06:38:56;0.20;;;0.20;;
56333;SDS011;42240;53.626;55.886;2023-04-15T06:40:31;0.20;;;0.20;;
56333;SDS011;42240;53.626;55.886;2023-04-15T06:42:06;0.20;;;0.20;;
56333;SDS011;42240;53.626;55.886;2023-04-15T06:43:40;0.20;;;0.20;;
56333;SDS011;42240;53.626;55.886;2023-04-15T06:45:15;0.20;;;0.20;;
56333;SDS011;42240;53.626;55.886;2023-04-15T06:46:50;0.20;;;0.20;;
56333;SDS011;42240;53.626;55.886;2023-04-15T06:48:24;0.20;;;0.20;;
56333;SDS011;42240;53.626;55.886;2023-04-15T06:49:58;0.20;;;0.20;;
56333;SDS011;42240;53.626;55.886;2023-04-15T06:51:33;0.20;;;0.20;;
56333;SDS011;42240;53.626;55.886;2023-04-15T06:53:08;0.20;;;0.20;;
56333;SDS011;42240;53.626;55.886;2023-04-15T06:54:42;0.30;;;0.30;;
56333;SDS011;42240;53.626;55.886;2023-04-15T06:56:17;0.20;;;0.20;;
56333;SDS011;42240;53.626;55.886;2023-04-15T06:57:51;0.20;;;0.20;;
56333;SDS011;42240;53.626;55.886;2023-04-15T06:59:25;0.30;;;0.30;;
56333;SDS011;42240;53.626;55.886;2023-04-15T07:00:59;0.20;;;0.20;;
56333;SDS011;42240;53.626;55.886;2023-04-15T07:02:34;0.20;;;0.20;;
56333;SDS011;42240;53.626;55.886;2023-04-15T07:04:09;0.20;;;0.20;;
56333;SDS011;42240;53.626;55.886;2023-04-15T07:05:44;0.30;;;0.30;;
56333;SDS011;42240;53.626;55.886;2023-04-15T07:07:19;0.30;;;0.30;;
56333;SDS011;42240;53.626;55.886;2023-04-15T07:08:54;0.30;;;0.30;;
56333;SDS011;42240;53.626;55.886;2023-04-15T07:10:28;0.30;;;0.30;;
56333;SDS011;42240;53.626;55.886;2023-04-15T07:12:05;0.30;;;0.30;;
56333;SDS011;42240;53.626;55.886;2023-04-15T07:13:40;0.30;;;0.30;;
56333;SDS011;42240;53.626;55.886;2023-04-15T07:15:14;0.30;;;0.30;;
56333;SDS011;42240;53.626;55.886;2023-04-15T07:16:49;0.22;;;0.22;;
56333;SDS011;42240;53.626;55.886;2023-04-15T07:18:24;0.30;;;0.30;;
56333;SDS011;42240;53.626;55.886;2023-04-15T07:19:58;0.30;;;0.30;;
56333;SDS011;42240;53.626;55.886;2023-04-15T07:21:32;0.30;;;0.30;;
56333;SDS011;42240;53.626;55.886;2023-04-15T07:23:07;0.30;;;0.30;;
56333;SDS011;42240;53.626;55.886;2023-04-15T07:24:41;0.30;;;0.30;;
56333;SDS011;42240;53.626;55.886;2023-04-15T07:26:16;0.30;;;0.30;;
56333;SDS011;42240;53.626;55.886;2023-04-15T07:27:51;0.30;;;0.30;;
56333;SDS011;42240;53.626;55.886;2023-04-15T07:29:25;0.30;;;0.30;;
56333;SDS011;42240;53.626;55.886;2023-04-15T07:30:59;0.30;;;0.30;;
56333;SDS011;42240;53.626;55.886;2023-04-15T07:32:34;0.25;;;0.25;;
56333;SDS011;42240;53.626;55.886;2023-04-15T07:34:09;0.30;;;0.30;;
56333;SDS011;42240;53.626;55.886;2023-04-15T07:35:43;0.30;;;0.30;;
56333;SDS011;42240;53.626;55.886;2023-04-15T07:37:17;0.30;;;0.30;;
56333;SDS011;42240;53.626;55.886;2023-04-15T07:38:52;0.30;;;0.30;;
56333;SDS011;42240;53.626;55.886;2023-04-15T07:40:30;0.30;;;0.30;;
56333;SDS011;42240;53.626;55.886;2023-04-15T07:42:05;0.30;;;0.30;;
56333;SDS011;42240;53.626;55.886;2023-04-15T07:43:39;0.30;;;0.30;;
56333;SDS011;42240;53.626;55.886;2023-04-15T07:45:13;0.30;;;0.30;;
56333;SDS011;42240;53.626;55.886;2023-04-15T07:46:48;0.20;;;0.20;;
56333;SDS011;42240;53.626;55.886;2023-04-15T07:48:23;0.30;;;0.30;;
56333;SDS011;42240;53.626;55.886;2023-04-15T07:49:57;0.30;;;0.30;;
56333;SDS011;42240;53.626;55.886;2023-04-15T07:51:32;0.30;;;0.30;;
56333;SDS011;42240;53.626;55.886;2023-04-15T07:53:07;0.30;;;0.30;;
56333;SDS011;42240;53.626;55.886;2023-04-15T07:54:42;0.30;;;0.30;;
56333;SDS011;42240;53.626;55.886;2023-04-15T07:56:16;0.30;;;0.30;;
56333;SDS011;42240;53.626;55.886;2023-04-15T07:57:50;0.30;;;0.30;;
56333;SDS011;42240;53.626;55.886;2023-04-15T07:59:24;0.30;;;0.30;;
56333;SDS011;42240;53.626;55.886;2023-04-15T08:01:00;0.30;;;0.30;;
56333;SDS011;42240;53.626;55.886;2023-04-15T08:02:34;0.20;;;0.20;;
56333;SDS011;42240;53.626;55.886;2023-04-15T08:04:12;0.30;;;0.30;;
56333;SDS011;42240;53.626;55.886;2023-04-15T08:05:47;0.25;;;0.25;;
56333;SDS011;42240;53.626;55.886;2023-04-15T08:07:22;0.30;;;0.30;;
56333;SDS011;42240;53.626;55.886;2023-04-15T08:08:56;0.30;;;0.30;;
56333;SDS011;42240;53.626;55.886;2023-04-15T08:10:31;0.30;;;0.30;;
56333;SDS011;42240;53.626;55.886;2023-04-15T08:12:05;0.30;;;0.30;;
56333;SDS011;42240;53.626;55.886;2023-04-15T08:13:42;0.30;;;0.30;;
56333;SDS011;42240;53.626;55.886;2023-04-15T08:15:16;0.30;;;0.30;;
56333;SDS011;42240;53.626;55.886;2023-04-15T08:16:51;0.30;;;0.30;;
56333;SDS011;42240;53.626;55.886;2023-04-15T08:18:25;0.30;;;0.30;;
56333;SDS011;42240;53.626;55.886;2023-04-15T08:19:59;0.30;;;0.30;;
56333;SDS011;42240;53.626;55.886;2023-04-15T08:21:34;0.20;;;0.20;;
56333;SDS011;42240;53.626;55.886;2023-04-15T08:23:09;0.28;;;0.28;;
56333;SDS011;42240;53.626;55.886;2023-04-15T08:24:43;0.30;;;0.30;;
56333;SDS011;42240;53.626;55.886;2023-04-15T08:26:19;0.30;;;0.30;;
56333;SDS011;42240;53.626;55.886;2023-04-15T08:27:55;0.20;;;0.20;;
56333;SDS011;42240;53.626;55.886;2023-04-15T08:29:32;0.30;;;0.30;;
56333;SDS011;42240;53.626;55.886;2023-04-15T08:31:09;0.30;;;0.30;;
56333;SDS011;42240;53.626;55.886;2023-04-15T08:32:44;0.20;;;0.20;;
56333;SDS011;42240;53.626;55.886;2023-04-15T08:34:22;0.30;;;0.30;;
56333;SDS011;42240;53.626;55.886;2023-04-15T08:35:58;0.20;;;0.20;;
56333;SDS011;42240;53.626;55.886;2023-04-15T08:37:32;0.20;;;0.20;;
56333;SDS011;42240;53.626;55.886;2023-04-15T08:39:06;0.30;;;0.30;;
56333;SDS011;42240;53.626;55.886;2023-04-15T08:40:41;0.30;;;0.30;;
56333;SDS011;42240;53.626;55.886;2023-04-15T08:42:18;0.20;;;0.20;;
56333;SDS011;42240;53.626;55.886;2023-04-15T08:44:05;0.30;;;0.30;;
56333;SDS011;42240;53.626;55.886;2023-04-15T08:45:40;0.30;;;0.30;;
56333;SDS011;42240;53.626;55.886;2023-04-15T08:47:15;0.28;;;0.28;;
56333;SDS011;42240;53.626;55.886;2023-04-15T08:48:55;0.30;;;0.30;;
56333;SDS011;42240;53.626;55.886;2023-04-15T08:50:31;0.30;;;0.30;;
56333;SDS011;42240;53.626;55.886;2023-04-15T08:52:05;0.30;;;0.30;;
56333;SDS011;42240;53.626;55.886;2023-04-15T08:53:42;0.30;;;0.30;;
56333;SDS011;42240;53.626;55.886;2023-04-15T08:55:17;0.30;;;0.30;;
56333;SDS011;42240;53.626;55.886;2023-04-15T08:56:53;0.30;;;0.30;;
56333;SDS011;42240;53.626;55.886;2023-04-15T08:58:28;0.30;;;0.30;;
56333;SDS011;42240;53.626;55.886;2023-04-15T09:00:03;0.30;;;0.30;;
56333;SDS011;42240;53.626;55.886;2023-04-15T09:01:38;0.30;;;0.30;;
56333;SDS011;42240;53.626;55.886;2023-04-15T09:03:13;0.20;;;0.20;;
56333;SDS011;42240;53.626;55.886;2023-04-15T09:04:48;0.30;;;0.30;;
56333;SDS011;42240;53.626;55.886;2023-04-15T09:06:22;0.30;;;0.30;;
56333;SDS011;42240;53.626;55.886;2023-04-15T09:07:57;0.20;;;0.20;;
56333;SDS011;42240;53.626;55.886;2023-04-15T09:09:32;0.20;;;0.20;;
56333;SDS011;42240;53.626;55.886;2023-04-15T09:11:07;0.30;;;0.30;;
56333;SDS011;42240;53.626;55.886;2023-04-15T09:12:41;0.30;;;0.30;;
56333;SDS011;42240;53.626;55.886;2023-04-15T09:14:16;0.30;;;0.30;;
56333;SDS011;42240;53.626;55.886;2023-04-15T09:15:50;0.20;;;0.20;;
56333;SDS011;42240;53.626;55.886;2023-04-15T09:17:26;0.30;;;0.30;;
56333;SDS011;42240;53.626;55.886;2023-04-15T09:19:00;0.30;;;0.30;;
56333;SDS011;42240;53.626;55.886;2023-04-15T09:20:53;0.30;;;0.30;;
56333;SDS011;42240;53.626;55.886;2023-04-15T09:22:31;0.30;;;0.30;;